createdAt,value
2022-10-17T00:00:59.927Z,100.00
2022-10-17T00:03:26.995Z,100.00
2022-10-17T00:05:54.069Z,100.00
2022-10-17T00:08:21.180Z,100.00
2022-10-17T00:11:05.414Z,100.00
2022-10-17T00:16:06.222Z,100.00
2022-10-17T00:18:33.218Z,100.00
2022-10-17T00:21:00.486Z,100.00
2022-10-17T00:23:28.565Z,100.00
2022-10-17T00:26:04.737Z,100.00
2022-10-17T00:28:33.233Z,100.00
2022-10-17T00:31:04.818Z,100.00
2022-10-17T00:33:33.593Z,100.00
2022-10-17T00:36:08.614Z,100.00
2022-10-17T00:38:37.146Z,100.00
2022-10-17T00:41:05.212Z,100.00
2022-10-17T00:44:06.202Z,100.00
2022-10-17T00:46:40.912Z,100.00
2022-10-17T00:49:12.704Z,100.00
2022-10-17T00:51:47.523Z,100.00
2022-10-17T00:54:17.809Z,100.00
2022-10-17T00:56:48.293Z,100.00
2022-10-17T00:59:18.817Z,100.00
2022-10-17T01:01:57.153Z,100.00
2022-10-17T01:04:26.929Z,100.00
2022-10-17T01:06:54.121Z,100.00
2022-10-17T01:09:21.999Z,100.00
2022-10-17T01:12:00.153Z,100.00
2022-10-17T01:14:53.965Z,100.00
2022-10-17T01:17:55.454Z,100.00
2022-10-17T01:20:32.399Z,100.00
2022-10-17T01:23:19.352Z,100.00
2022-10-17T01:26:29.966Z,100.00
2022-10-17T01:30:02.573Z,100.00
2022-10-17T01:32:45.912Z,100.00
2022-10-17T01:35:27.933Z,100.00
2022-10-17T01:38:07.094Z,100.00
2022-10-17T01:40:44.796Z,100.00
2022-10-17T01:43:26.339Z,100.00
2022-10-17T01:46:02.660Z,100.00
2022-10-17T01:48:43.378Z,100.00
2022-10-17T01:51:21.196Z,100.00
2022-10-17T01:54:00.329Z,100.00
2022-10-17T01:56:32.298Z,100.00
2022-10-17T01:59:12.733Z,100.00
2022-10-17T02:01:42.768Z,100.00
2022-10-17T02:04:11.490Z,100.00
2022-10-17T02:06:39.030Z,100.00
2022-10-17T02:09:26.716Z,100.00
2022-10-17T02:12:29.239Z,100.00
2022-10-17T02:15:20.016Z,100.00
2022-10-17T02:18:15.368Z,100.00
2022-10-17T02:20:57.155Z,100.00
2022-10-17T02:23:56.369Z,100.00
2022-10-17T02:26:54.032Z,100.00
2022-10-17T02:29:43.304Z,100.00
2022-10-17T02:34:54.685Z,100.00
2022-10-17T02:37:28.082Z,100.00
2022-10-17T02:39:58.151Z,100.00
2022-10-17T02:42:27.641Z,100.00
2022-10-17T02:45:01.071Z,100.00
2022-10-17T02:47:51.279Z,100.00
2022-10-17T02:53:09.397Z,100.00
2022-10-17T02:55:46.818Z,100.00
2022-10-17T02:58:24.216Z,100.00
2022-10-17T03:00:52.432Z,100.00
2022-10-17T03:03:23.778Z,100.00
2022-10-17T03:05:52.342Z,100.00
2022-10-17T03:08:23.732Z,100.00
2022-10-17T03:10:51.563Z,100.00
2022-10-17T03:13:19.567Z,100.00
2022-10-17T03:15:47.073Z,100.00
2022-10-17T03:18:14.493Z,100.00
2022-10-17T03:20:44.806Z,100.00
2022-10-17T03:23:12.183Z,100.00
2022-10-17T03:25:41.906Z,100.00
2022-10-17T03:28:10.697Z,100.00
2022-10-17T03:30:38.983Z,100.00
2022-10-17T03:33:06.660Z,100.00
2022-10-17T03:35:33.917Z,100.00
2022-10-17T03:38:00.925Z,100.00
2022-10-17T03:40:29.733Z,100.00
2022-10-17T03:42:57.055Z,100.00
2022-10-17T03:45:24.339Z,100.00
2022-10-17T03:47:53.238Z,100.00
2022-10-17T03:50:20.896Z,100.00
2022-10-17T03:52:49.595Z,100.00
2022-10-17T03:55:17.953Z,100.00
2022-10-17T03:57:45.741Z,100.00
2022-10-17T04:00:14.974Z,100.00
2022-10-17T04:02:42.140Z,100.00
2022-10-17T04:05:15.053Z,100.00
2022-10-17T04:07:42.142Z,100.00
2022-10-17T04:10:10.967Z,100.00
2022-10-17T04:12:38.412Z,100.00
2022-10-17T04:15:06.794Z,100.00
2022-10-17T04:17:37.339Z,100.00
2022-10-17T04:20:30.648Z,100.00
2022-10-17T04:22:58.011Z,100.00
2022-10-17T04:25:27.866Z,100.00
2022-10-17T04:27:55.438Z,100.00
2022-10-17T04:30:22.812Z,100.00
2022-10-17T04:32:51.069Z,100.00
2022-10-17T04:35:21.293Z,100.00
2022-10-17T04:37:54.137Z,100.00
2022-10-17T04:40:21.299Z,100.00
2022-10-17T04:42:50.687Z,100.00
2022-10-17T04:45:20.970Z,100.00
2022-10-17T04:47:51.886Z,100.00
2022-10-17T04:50:19.429Z,100.00
2022-10-17T04:53:04.628Z,100.00
2022-10-17T04:55:32.309Z,100.00
2022-10-17T04:58:02.890Z,100.00
2022-10-17T05:00:30.873Z,100.00
2022-10-17T05:03:21.199Z,100.00
2022-10-17T05:05:48.736Z,100.00
2022-10-17T05:08:17.176Z,100.00
2022-10-17T05:10:46.325Z,100.00
2022-10-17T05:13:14.367Z,100.00
2022-10-17T05:15:41.699Z,100.00
2022-10-17T05:18:08.931Z,100.00
2022-10-17T05:20:37.030Z,100.00
2022-10-17T05:23:04.199Z,100.00
2022-10-17T05:25:36.066Z,100.00
2022-10-17T05:28:04.403Z,100.00
2022-10-17T05:30:35.224Z,100.00
2022-10-17T05:33:07.134Z,100.00
2022-10-17T05:35:34.374Z,100.00
2022-10-17T05:38:02.151Z,100.00
2022-10-17T05:40:31.442Z,100.00
2022-10-17T05:42:59.059Z,100.00
2022-10-17T05:45:26.250Z,100.00
2022-10-17T05:47:53.715Z,100.00
2022-10-17T05:50:22.104Z,100.00
2022-10-17T05:53:04.043Z,100.00
2022-10-17T05:55:34.202Z,100.00
2022-10-17T05:58:02.236Z,100.00
2022-10-17T06:00:34.648Z,100.00
2022-10-17T06:03:02.211Z,100.00
2022-10-17T06:05:29.552Z,100.00
2022-10-17T06:07:59.618Z,100.00
2022-10-17T06:10:30.400Z,100.00
2022-10-17T06:12:57.689Z,100.00
2022-10-17T06:15:26.037Z,100.00
2022-10-17T06:18:00.547Z,100.00
2022-10-17T06:20:27.684Z,100.00
2022-10-17T06:22:54.933Z,100.00
2022-10-17T06:25:39.285Z,100.00
2022-10-17T06:28:06.907Z,100.00
2022-10-17T06:30:34.418Z,100.00
2022-10-17T06:33:01.985Z,100.00
2022-10-17T06:35:29.407Z,100.00
2022-10-17T06:37:57.216Z,100.00
2022-10-17T06:40:25.565Z,100.00
2022-10-17T06:42:56.592Z,100.00
2022-10-17T06:45:42.395Z,100.00
2022-10-17T06:48:19.633Z,100.00
2022-10-17T06:51:12.274Z,100.00
2022-10-17T06:53:47.995Z,100.00
2022-10-17T06:56:36.245Z,100.00
2022-10-17T06:59:22.531Z,100.00
2022-10-17T07:02:01.502Z,100.00
2022-10-17T07:04:29.824Z,100.00
2022-10-17T07:09:31.323Z,100.00
2022-10-17T07:11:59.733Z,100.00
2022-10-17T07:14:32.127Z,100.00
2022-10-17T07:17:00.292Z,100.00
2022-10-17T07:19:29.905Z,100.00
2022-10-17T07:21:56.995Z,100.00
2022-10-17T07:24:24.440Z,100.00
2022-10-17T07:27:18.169Z,100.00
2022-10-17T07:29:46.316Z,100.00
2022-10-17T07:32:32.040Z,100.00
2022-10-17T07:34:59.758Z,100.00
2022-10-17T07:37:27.134Z,100.00
2022-10-17T07:39:56.572Z,100.00
2022-10-17T07:42:24.192Z,100.00
2022-10-17T07:44:51.254Z,100.00
2022-10-17T07:47:20.837Z,100.00
2022-10-17T07:49:49.369Z,100.00
2022-10-17T07:52:17.453Z,100.00
2022-10-17T07:54:44.737Z,100.00
2022-10-17T07:57:11.985Z,100.00
2022-10-17T07:59:39.121Z,100.00
2022-10-17T08:02:08.082Z,100.00
2022-10-17T08:04:36.466Z,100.00
2022-10-17T08:07:19.102Z,100.00
2022-10-17T08:09:48.041Z,100.00
2022-10-17T08:12:15.284Z,100.00
2022-10-17T08:14:43.950Z,100.00
2022-10-17T08:17:12.387Z,100.00
2022-10-17T08:19:40.529Z,100.00
2022-10-17T08:22:07.991Z,100.00
2022-10-17T08:24:35.490Z,100.00
2022-10-17T08:27:03.998Z,100.00
2022-10-17T08:29:32.886Z,100.00
2022-10-17T08:32:01.541Z,100.00
2022-10-17T08:34:29.490Z,100.00
2022-10-17T08:36:56.632Z,100.00
2022-10-17T08:39:23.806Z,100.00
2022-10-17T08:41:56.813Z,100.00
2022-10-17T08:44:48.108Z,100.00
2022-10-17T08:47:25.008Z,100.00
2022-10-17T08:49:57.303Z,100.00
2022-10-17T08:52:53.005Z,100.00
2022-10-17T08:55:42.825Z,100.00
2022-10-17T08:58:27.179Z,100.00
2022-10-17T09:01:10.507Z,100.00
2022-10-17T09:04:15.622Z,100.00
2022-10-17T09:07:21.113Z,100.00
2022-10-17T09:10:17.245Z,100.00
2022-10-17T09:13:13.026Z,100.00
2022-10-17T09:16:09.421Z,100.00
2022-10-17T09:18:41.909Z,100.00
2022-10-17T09:21:19.581Z,100.00
2022-10-17T09:24:09.645Z,100.00
2022-10-17T09:26:40.484Z,100.00
2022-10-17T09:29:23.229Z,100.00
2022-10-17T09:32:18.411Z,100.00
2022-10-17T09:34:45.516Z,100.00
2022-10-17T09:37:17.351Z,100.00
2022-10-17T09:39:45.449Z,100.00
2022-10-17T09:42:19.237Z,100.00
2022-10-17T09:44:57.516Z,100.00
2022-10-17T09:47:45.737Z,100.00
2022-10-17T09:50:29.446Z,100.00
2022-10-17T09:53:01.800Z,100.00
2022-10-17T09:55:42.620Z,98.80
2022-10-17T09:58:11.161Z,100.00
2022-10-17T10:00:42.920Z,100.00
2022-10-17T10:03:12.925Z,100.00
2022-10-17T10:05:41.855Z,100.00
2022-10-17T10:08:16.026Z,96.48
2022-10-17T10:10:44.847Z,95.23
2022-10-17T10:13:14.875Z,96.21
2022-10-17T10:15:45.662Z,95.21
2022-10-17T10:18:26.602Z,94.31
2022-10-17T10:21:14.206Z,95.76
2022-10-17T10:24:02.772Z,92.24
2022-10-17T10:26:35.337Z,91.59
2022-10-17T10:29:17.198Z,90.28
2022-10-17T10:31:44.481Z,88.52
2022-10-17T10:34:26.617Z,90.72
2022-10-17T10:36:58.008Z,87.51
2022-10-17T10:39:46.084Z,87.84
2022-10-17T10:42:32.662Z,88.08
2022-10-17T10:45:05.063Z,87.32
2022-10-17T10:47:33.236Z,91.70
2022-10-17T10:50:25.650Z,88.75
2022-10-17T10:53:01.949Z,88.15
2022-10-17T10:55:51.080Z,88.62
2022-10-17T10:58:32.071Z,85.84
2022-10-17T11:01:05.442Z,83.33
2022-10-17T11:04:28.706Z,83.60
2022-10-17T11:07:08.825Z,80.65
2022-10-17T11:10:01.134Z,80.17
2022-10-17T11:12:39.507Z,80.69
2022-10-17T11:15:28.202Z,78.66
2022-10-17T11:18:01.261Z,78.85
2022-10-17T11:20:58.908Z,76.09
2022-10-17T11:23:58.435Z,75.94
2022-10-17T11:26:35.897Z,74.23
2022-10-17T11:29:06.727Z,73.70
2022-10-17T11:31:43.445Z,71.19
2022-10-17T11:34:19.526Z,70.54
2022-10-17T11:36:52.456Z,69.64
2022-10-17T11:39:31.563Z,66.28
2022-10-17T11:42:09.921Z,64.93
2022-10-17T11:44:39.637Z,63.63
2022-10-17T11:47:22.451Z,62.25
2022-10-17T11:49:55.941Z,62.79
2022-10-17T11:52:55.997Z,58.87
2022-10-17T11:55:30.634Z,55.29
2022-10-17T11:58:35.814Z,53.24
2022-10-17T12:01:27.314Z,51.79
2022-10-17T12:04:30.888Z,49.60
2022-10-17T12:07:09.155Z,46.37
2022-10-17T12:10:07.394Z,43.99
2022-10-17T12:12:35.385Z,42.46
2022-10-17T12:15:26.182Z,40.34
2022-10-17T12:18:00.963Z,39.71
2022-10-17T12:20:38.484Z,38.04
2022-10-17T12:23:11.801Z,37.11
2022-10-17T12:25:55.902Z,35.16
2022-10-17T12:28:37.552Z,32.75
2022-10-17T12:31:33.397Z,33.71
2022-10-17T12:34:05.041Z,34.16
2022-10-17T12:36:32.410Z,34.99
2022-10-17T12:39:02.127Z,32.28
2022-10-17T12:41:38.229Z,31.52
2022-10-17T12:44:14.641Z,30.44
2022-10-17T12:46:49.343Z,31.82
2022-10-17T12:49:39.613Z,32.08
2022-10-17T12:52:25.136Z,31.38
2022-10-17T12:55:07.509Z,30.05
2022-10-17T12:57:48.354Z,29.49
2022-10-17T13:00:37.076Z,30.28
2022-10-17T13:03:18.289Z,29.94
2022-10-17T13:05:56.856Z,29.12
2022-10-17T13:08:34.277Z,29.34
2022-10-17T13:11:02.118Z,29.60
2022-10-17T13:13:44.442Z,29.86
2022-10-17T13:16:32.008Z,29.27
2022-10-17T13:19:01.531Z,28.14
2022-10-17T13:21:29.705Z,28.65
2022-10-17T13:23:57.183Z,29.33
2022-10-17T13:26:28.960Z,30.45
2022-10-17T13:29:10.797Z,29.18
2022-10-17T13:31:41.676Z,28.10
2022-10-17T13:34:21.850Z,27.77
2022-10-17T13:36:54.291Z,26.25
2022-10-17T13:39:38.270Z,25.46
2022-10-17T13:42:37.195Z,25.08
2022-10-17T13:45:17.271Z,24.64
2022-10-17T13:47:44.926Z,24.28
2022-10-17T13:50:45.321Z,24.42
2022-10-17T13:53:37.148Z,24.54
2022-10-17T13:56:27.796Z,29.63
2022-10-17T13:58:58.121Z,29.77
2022-10-17T14:01:28.118Z,29.47
2022-10-17T14:04:07.702Z,28.38
2022-10-17T14:06:43.948Z,27.23
2022-10-17T14:09:26.852Z,27.10
2022-10-17T14:12:12.680Z,26.57
2022-10-17T14:15:09.199Z,26.17
2022-10-17T14:17:34.983Z,25.87
2022-10-17T14:20:29.669Z,25.34
2022-10-17T14:23:20.948Z,25.13
2022-10-17T14:25:41.296Z,25.68
2022-10-17T14:28:12.349Z,25.22
2022-10-17T14:30:57.178Z,25.92
2022-10-17T14:33:29.554Z,25.25
2022-10-17T14:35:59.433Z,25.15
2022-10-17T14:38:28.866Z,25.06
2022-10-17T14:41:44.612Z,25.42
2022-10-17T14:44:27.061Z,26.04
2022-10-17T14:47:03.442Z,26.11
2022-10-17T14:49:41.090Z,25.75
2022-10-17T14:52:18.236Z,25.94
2022-10-17T14:54:50.228Z,25.79
2022-10-17T14:57:29.159Z,26.66
2022-10-17T14:59:57.285Z,26.41
2022-10-17T15:02:26.929Z,26.33
2022-10-17T15:04:54.926Z,26.78
2022-10-17T15:07:23.525Z,27.01
2022-10-17T15:09:53.207Z,27.32
2022-10-17T15:12:25.583Z,27.16
2022-10-17T15:14:53.804Z,27.13
2022-10-17T15:17:30.663Z,27.19
2022-10-17T15:19:58.297Z,27.05
2022-10-17T15:22:25.816Z,27.24
2022-10-17T15:24:53.388Z,27.27
2022-10-17T15:27:26.327Z,28.05
2022-10-17T15:29:53.467Z,28.24
2022-10-17T15:32:20.473Z,28.30
2022-10-17T15:34:47.561Z,29.12
2022-10-17T15:37:21.841Z,29.19
2022-10-17T15:39:54.913Z,29.84
2022-10-17T15:42:30.525Z,30.22
2022-10-17T15:44:58.461Z,31.43
2022-10-17T15:47:31.298Z,31.35
2022-10-17T15:50:00.494Z,32.38
2022-10-17T15:52:28.102Z,32.90
2022-10-17T15:54:57.306Z,33.68
2022-10-17T15:57:39.162Z,34.59
2022-10-17T16:00:26.634Z,35.59
2022-10-17T16:02:53.778Z,35.79
2022-10-17T16:05:29.088Z,36.92
2022-10-17T16:07:57.804Z,38.61
2022-10-17T16:10:26.000Z,40.35
2022-10-17T16:12:53.029Z,42.53
2022-10-17T16:15:28.042Z,44.74
2022-10-17T16:17:57.226Z,46.30
2022-10-17T16:20:25.413Z,47.67
2022-10-17T16:22:59.516Z,49.87
2022-10-17T16:25:29.029Z,52.12
2022-10-17T16:27:58.772Z,54.25
2022-10-17T16:30:29.094Z,56.48
2022-10-17T16:32:56.930Z,58.33
2022-10-17T16:35:33.283Z,60.95
2022-10-17T16:38:05.690Z,65.24
2022-10-17T16:40:32.973Z,67.38
2022-10-17T16:43:00.157Z,68.83
2022-10-17T16:45:27.257Z,71.31
2022-10-17T16:47:55.473Z,74.35
2022-10-17T16:50:22.649Z,76.08
2022-10-17T16:52:49.819Z,78.07
2022-10-17T16:55:20.069Z,79.40
2022-10-17T16:57:48.932Z,82.14
2022-10-17T17:00:17.525Z,84.79
2022-10-17T17:02:48.208Z,85.71
2022-10-17T17:05:15.720Z,90.15
2022-10-17T17:07:48.056Z,92.32
2022-10-17T17:10:15.419Z,92.38
2022-10-17T17:12:42.503Z,93.34
2022-10-17T17:15:09.540Z,94.41
2022-10-17T17:17:49.660Z,96.17
2022-10-17T17:20:18.458Z,97.03
2022-10-17T17:22:45.445Z,97.53
2022-10-17T17:25:12.470Z,99.55
2022-10-17T17:27:39.460Z,100.00
2022-10-17T17:30:07.697Z,100.00
2022-10-17T17:32:34.773Z,100.00
2022-10-17T17:35:02.035Z,100.00
2022-10-17T17:37:29.445Z,100.00
2022-10-17T17:39:56.751Z,100.00
2022-10-17T17:42:23.787Z,100.00
2022-10-17T17:44:50.854Z,100.00
2022-10-17T17:47:18.579Z,100.00
2022-10-17T17:49:45.634Z,100.00
2022-10-17T17:52:12.640Z,100.00
2022-10-17T17:54:40.976Z,100.00
2022-10-17T17:57:08.334Z,100.00
2022-10-17T17:59:35.533Z,100.00
2022-10-17T18:02:02.889Z,100.00
2022-10-17T18:04:30.029Z,100.00
2022-10-17T18:06:57.053Z,100.00
2022-10-17T18:09:24.125Z,100.00
2022-10-17T18:11:51.179Z,100.00
2022-10-17T18:14:23.620Z,100.00
2022-10-17T18:16:50.759Z,100.00
2022-10-17T18:19:17.962Z,100.00
2022-10-17T18:21:45.162Z,100.00
2022-10-17T18:24:12.258Z,100.00
2022-10-17T18:26:39.270Z,100.00
2022-10-17T18:29:06.301Z,100.00
2022-10-17T18:31:35.813Z,100.00
2022-10-17T18:34:05.472Z,100.00
2022-10-17T18:36:34.676Z,100.00
2022-10-17T18:39:02.365Z,100.00
2022-10-17T18:41:30.128Z,100.00
2022-10-17T18:43:57.897Z,100.00
2022-10-17T18:49:18.931Z,100.00
2022-10-17T18:51:47.393Z,100.00
2022-10-17T18:54:21.523Z,100.00
2022-10-17T18:56:54.572Z,100.00
2022-10-17T18:59:22.516Z,100.00
2022-10-17T19:01:50.642Z,100.00
2022-10-17T19:04:18.304Z,100.00
2022-10-17T19:06:45.773Z,100.00
2022-10-17T19:09:14.902Z,100.00
2022-10-17T19:11:42.862Z,100.00
2022-10-17T19:14:13.451Z,100.00
2022-10-17T19:16:45.758Z,100.00
2022-10-17T19:19:21.189Z,100.00
2022-10-17T19:21:49.002Z,100.00
2022-10-17T19:24:24.221Z,100.00
2022-10-17T19:26:55.682Z,100.00
2022-10-17T19:29:28.124Z,100.00
2022-10-17T19:34:23.751Z,100.00
2022-10-17T19:36:51.055Z,100.00
2022-10-17T19:39:23.260Z,100.00
2022-10-17T19:41:50.543Z,100.00
2022-10-17T19:44:17.825Z,100.00
2022-10-17T19:46:46.938Z,100.00
2022-10-17T19:49:15.864Z,100.00
2022-10-17T19:51:46.572Z,100.00
2022-10-17T19:54:16.389Z,100.00
2022-10-17T19:56:45.577Z,100.00
2022-10-17T19:59:15.395Z,100.00
2022-10-17T20:01:43.330Z,100.00
2022-10-17T20:04:35.703Z,100.00
2022-10-17T20:07:02.729Z,100.00
2022-10-17T20:09:29.840Z,100.00
2022-10-17T20:11:56.857Z,100.00
2022-10-17T20:14:23.869Z,100.00
2022-10-17T20:16:52.383Z,100.00
2022-10-17T20:19:19.828Z,100.00
2022-10-17T20:21:46.797Z,100.00
2022-10-17T20:24:16.408Z,100.00
2022-10-17T20:26:44.333Z,100.00
2022-10-17T20:29:20.935Z,100.00
2022-10-17T20:31:48.969Z,100.00
2022-10-17T20:34:18.440Z,100.00
2022-10-17T20:36:46.675Z,100.00
2022-10-17T20:39:16.422Z,100.00
2022-10-17T20:41:45.568Z,100.00
2022-10-17T20:44:13.320Z,100.00
2022-10-17T20:46:45.318Z,100.00
2022-10-17T20:49:20.948Z,100.00
2022-10-17T20:51:48.242Z,100.00
2022-10-17T20:54:15.450Z,100.00
2022-10-17T20:56:42.786Z,100.00
2022-10-17T20:59:14.329Z,100.00
2022-10-17T21:01:41.899Z,100.00
2022-10-17T21:04:44.323Z,100.00
2022-10-17T21:06:57.062Z,100.00
2022-10-17T21:09:24.484Z,100.00
2022-10-17T21:11:55.234Z,100.00
2022-10-17T21:14:24.725Z,100.00
2022-10-17T21:16:52.238Z,100.00
2022-10-17T21:19:19.614Z,100.00
2022-10-17T21:21:46.907Z,100.00
2022-10-17T21:24:18.053Z,100.00
2022-10-17T21:26:49.978Z,100.00
2022-10-17T21:29:17.425Z,100.00
2022-10-17T21:31:45.222Z,100.00
2022-10-17T21:34:20.749Z,100.00
2022-10-17T21:36:50.727Z,100.00
2022-10-17T21:39:17.833Z,100.00
2022-10-17T21:41:45.431Z,100.00
2022-10-17T21:44:25.009Z,100.00
2022-10-17T21:46:53.696Z,100.00
2022-10-17T21:49:24.242Z,100.00
2022-10-17T21:51:52.648Z,100.00
2022-10-17T21:54:22.837Z,100.00
2022-10-17T21:56:50.498Z,100.00
2022-10-17T21:59:17.953Z,100.00
2022-10-17T22:01:46.263Z,100.00
2022-10-17T22:04:39.174Z,100.00
2022-10-17T22:07:06.578Z,100.00
2022-10-17T22:09:33.901Z,100.00
2022-10-17T22:12:01.008Z,100.00
2022-10-17T22:14:28.373Z,100.00
2022-10-17T22:16:55.713Z,100.00
2022-10-17T22:19:26.059Z,100.00
2022-10-17T22:21:54.166Z,100.00
2022-10-17T22:26:54.162Z,100.00
2022-10-17T22:29:21.516Z,100.00
2022-10-17T22:31:48.719Z,100.00
2022-10-17T22:34:17.545Z,100.00
2022-10-17T22:36:45.088Z,100.00
2022-10-17T22:39:12.168Z,100.00
2022-10-17T22:41:39.150Z,100.00
2022-10-17T22:44:06.687Z,100.00
2022-10-17T22:46:33.898Z,100.00
2022-10-17T22:49:07.182Z,100.00
2022-10-17T22:51:34.450Z,100.00
2022-10-17T22:54:01.840Z,100.00
2022-10-17T22:56:29.284Z,100.00
2022-10-17T22:58:56.464Z,100.00
2022-10-17T23:01:25.313Z,100.00
2022-10-17T23:03:53.139Z,100.00
2022-10-17T23:06:21.354Z,100.00
2022-10-17T23:08:49.018Z,100.00
2022-10-17T23:11:16.379Z,100.00
2022-10-17T23:13:43.515Z,100.00
2022-10-17T23:16:10.644Z,100.00
2022-10-17T23:18:39.060Z,100.00
2022-10-17T23:21:07.161Z,100.00
2022-10-17T23:23:34.632Z,100.00
2022-10-17T23:26:13.629Z,100.00
2022-10-17T23:28:42.383Z,100.00
2022-10-17T23:31:14.940Z,100.00
2022-10-17T23:33:44.824Z,100.00
2022-10-17T23:36:14.685Z,100.00
2022-10-17T23:38:44.168Z,100.00
2022-10-17T23:41:12.058Z,100.00
2022-10-17T23:43:39.217Z,100.00
2022-10-17T23:46:07.138Z,100.00
2022-10-17T23:48:37.401Z,100.00
2022-10-17T23:51:07.202Z,100.00
2022-10-17T23:53:35.971Z,100.00
2022-10-17T23:56:04.929Z,100.00
2022-10-17T23:58:32.101Z,100.00
